Time;durP1;ratioP1;P1;durP2;ratioP2;P2;SDS_P1;SDS_P2;PMS_P1;PMS_P2;Temp;Humidity;BMP_temperature;BMP_pressure;BME280_temperature;BME280_humidity;BME280_pressure;Samples;Min_cycle;Max_cycle;Signal;HPM_P1;HPM_P2
2023/04/08 00:00:01;;;;;;;1.30;1.20;;;6.00;97.30;;;;;;4934914;29;20176;-86
2023/04/08 00:02:26;;;;;;;1.90;1.80;;;6.00;97.30;;;;;;4926417;29;20200;-85
2023/04/08 00:04:52;;;;;;;1.83;1.73;;;6.00;97.30;;;;;;4929823;29;21008;-87
2023/04/08 00:07:17;;;;;;;2.00;1.50;;;6.00;97.30;;;;;;4932373;29;20278;-87
2023/04/08 00:09:43;;;;;;;2.10;1.67;;;6.00;97.30;;;;;;4932971;29;20179;-86
2023/04/08 00:12:08;;;;;;;3.00;1.97;;;6.00;97.30;;;;;;4931468;29;20211;-88
2023/04/08 00:14:34;;;;;;;3.37;1.77;;;6.00;97.30;;;;;;4936517;29;20208;-86
2023/04/08 00:17:00;;;;;;;2.17;2.00;;;6.00;97.30;;;;;;4933585;29;20180;-85
2023/04/08 00:19:25;;;;;;;4.07;2.00;;;6.00;97.30;;;;;;4930086;29;20869;-86
2023/04/08 00:21:51;;;;;;;5.33;1.83;;;6.00;97.30;;;;;;4933196;29;20282;-88
2023/04/08 00:24:17;;;;;;;1.30;1.20;;;5.90;97.30;;;;;;4933262;29;20222;-86
2023/04/08 00:26:43;;;;;;;4.00;2.60;;;6.00;97.30;;;;;;4931815;29;20460;-86
2023/04/08 00:29:08;;;;;;;1.53;1.47;;;6.00;97.30;;;;;;4949048;28;20474;-86
2023/04/08 00:31:34;;;;;;;1.77;1.43;;;5.90;97.30;;;;;;4932718;29;20208;-86
2023/04/08 00:33:59;;;;;;;1.30;1.23;;;5.90;97.30;;;;;;4928796;29;20200;-85
2023/04/08 00:36:26;;;;;;;1.60;1.50;;;6.00;97.30;;;;;;4932238;29;20192;-86
2023/04/08 00:38:52;;;;;;;1.60;1.53;;;6.00;97.30;;;;;;4923445;29;20184;-88
2023/04/08 00:41:17;;;;;;;1.43;1.30;;;6.00;97.30;;;;;;4930172;29;20539;-86
2023/04/08 00:43:43;;;;;;;2.40;1.73;;;6.00;97.30;;;;;;4933029;29;20314;-86
2023/04/08 00:46:08;;;;;;;1.70;1.60;;;6.00;97.30;;;;;;4940388;29;20199;-85
2023/04/08 00:48:34;;;;;;;3.67;1.40;;;6.00;97.30;;;;;;4934052;29;20188;-86
2023/04/08 00:50:59;;;;;;;1.23;1.13;;;5.90;97.30;;;;;;4933104;29;20192;-86
2023/04/08 00:53:25;;;;;;;1.87;1.83;;;5.90;97.30;;;;;;4929599;29;20689;-85
2023/04/08 00:55:50;;;;;;;1.77;1.73;;;5.90;97.30;;;;;;4922557;29;20204;-88
2023/04/08 00:58:16;;;;;;;2.60;2.30;;;5.90;97.30;;;;;;4933925;29;20243;-86
2023/04/08 01:00:50;;;;;;;2.23;1.70;;;5.90;97.30;;;;;;4928320;28;20288;-88
2023/04/08 01:03:23;;;;;;;1.30;1.20;;;5.90;97.30;;;;;;4932745;29;20279;-87
2023/04/08 01:06:00;;;;;;;1.43;1.33;;;5.90;97.30;;;;;;4933844;29;20419;-86
2023/04/08 01:08:28;;;;;;;3.70;1.50;;;5.90;97.30;;;;;;4940824;29;20441;-87
2023/04/08 01:10:59;;;;;;;1.90;1.80;;;5.90;97.30;;;;;;4932508;29;20444;-86
2023/04/08 01:13:30;;;;;;;1.33;1.30;;;5.80;97.30;;;;;;4941847;29;20451;-86
2023/04/08 01:15:56;;;;;;;3.07;2.90;;;5.80;97.30;;;;;;4932465;29;20793;-84
2023/04/08 01:18:22;;;;;;;1.30;1.20;;;5.80;97.30;;;;;;4931680;29;20521;-86
2023/04/08 01:20:49;;;;;;;2.60;2.13;;;5.80;97.30;;;;;;4932031;29;20283;-84
2023/04/08 01:23:38;;;;;;;1.87;1.47;;;5.80;97.30;;;;;;4927384;29;20486;-87
2023/04/08 01:26:03;;;;;;;2.77;1.50;;;5.70;97.30;;;;;;4921705;29;20492;-86
2023/04/08 01:28:30;;;;;;;2.07;1.97;;;5.70;97.30;;;;;;4929953;29;20925;-86
2023/04/08 01:30:59;;;;;;;2.40;1.50;;;5.70;97.30;;;;;;4928474;29;20577;-86
2023/04/08 01:33:27;;;;;;;1.50;1.40;;;5.70;97.30;;;;;;4932332;29;20419;-87
2023/04/08 01:35:55;;;;;;;18.43;2.03;;;5.70;97.30;;;;;;4932366;29;20759;-86
2023/04/08 01:38:23;;;;;;;1.63;1.53;;;5.70;97.30;;;;;;4932046;29;20460;-86
2023/04/08 01:40:50;;;;;;;2.07;1.93;;;5.70;97.30;;;;;;4932105;29;20458;-86
2023/04/08 01:43:17;;;;;;;1.87;1.77;;;5.70;97.30;;;;;;4927558;29;20499;-86
2023/04/08 01:45:45;;;;;;;3.63;2.63;;;5.70;97.30;;;;;;4932453;29;20467;-87
2023/04/08 01:48:13;;;;;;;1.83;1.73;;;5.70;97.30;;;;;;4933642;29;20456;-85
2023/04/08 01:50:43;;;;;;;1.70;1.60;;;5.70;97.30;;;;;;4936286;29;20586;-86
2023/04/08 01:53:10;;;;;;;3.23;3.03;;;5.70;97.30;;;;;;4932306;29;20474;-86
2023/04/08 01:55:37;;;;;;;1.67;1.40;;;5.70;97.30;;;;;;4925371;29;21059;-86
2023/04/08 01:58:05;;;;;;;1.20;1.10;;;5.70;97.30;;;;;;4931839;29;20423;-87
2023/04/08 02:00:32;;;;;;;6.53;1.67;;;5.70;97.30;;;;;;4931848;29;20844;-86
2023/04/08 02:02:59;;;;;;;1.63;1.30;;;5.70;97.30;;;;;;4928620;29;20435;-88
2023/04/08 02:05:25;;;;;;;1.30;1.20;;;5.70;97.30;;;;;;4931630;29;20791;-85
2023/04/08 02:07:50;;;;;;;1.60;1.50;;;5.70;97.30;;;;;;4932237;29;20431;-88
2023/04/08 02:10:19;;;;;;;1.80;1.70;;;5.60;97.30;;;;;;4931475;29;20208;-86
2023/04/08 02:12:45;;;;;;;4.77;2.53;;;5.60;97.30;;;;;;4925934;29;20668;-87
2023/04/08 02:15:11;;;;;;;1.73;1.63;;;5.60;97.30;;;;;;4926828;29;20858;-86
2023/04/08 02:17:55;;;;;;;2.00;1.90;;;5.60;97.30;;;;;;4933104;29;20427;-86
2023/04/08 02:20:27;;;;;;;2.40;1.47;;;5.60;97.30;;;;;;4929090;29;20531;-86
2023/04/08 02:23:02;;;;;;;1.63;1.60;;;5.60;97.30;;;;;;4927285;29;20467;-86
2023/04/08 02:25:29;;;;;;;3.70;2.87;;;5.60;97.30;;;;;;4931554;29;20428;-86
2023/04/08 02:27:55;;;;;;;1.90;1.80;;;5.60;97.30;;;;;;4932503;29;21037;-86
2023/04/08 02:30:22;;;;;;;3.70;1.93;;;5.60;97.30;;;;;;4934201;29;20451;-86
2023/04/08 02:32:49;;;;;;;1.87;1.60;;;5.60;97.30;;;;;;4925537;29;21106;-84
2023/04/08 02:35:16;;;;;;;1.97;1.87;;;5.60;97.30;;;;;;4934675;29;20533;-87
2023/04/08 02:37:41;;;;;;;5.07;2.17;;;5.60;97.30;;;;;;4935211;29;20921;-86
2023/04/08 02:40:25;;;;;;;1.40;1.30;;;5.60;97.30;;;;;;4939960;29;20423;-86
2023/04/08 02:42:50;;;;;;;1.03;1.00;;;5.60;97.30;;;;;;4932381;29;20182;-87
2023/04/08 02:45:16;;;;;;;1.40;1.30;;;5.60;97.30;;;;;;4951042;28;20881;-87
2023/04/08 02:47:42;;;;;;;2.80;1.90;;;5.60;97.30;;;;;;4932238;29;20184;-86
2023/04/08 02:50:08;;;;;;;2.47;2.13;;;5.60;97.30;;;;;;4941767;28;20507;-86
2023/04/08 02:52:33;;;;;;;1.23;1.20;;;5.60;97.30;;;;;;4927901;29;20188;-86
2023/04/08 02:54:59;;;;;;;4.10;1.63;;;5.60;97.30;;;;;;4934096;29;20559;-86
2023/04/08 02:57:24;;;;;;;3.30;3.10;;;5.60;97.30;;;;;;4935886;29;20188;-86
2023/04/08 02:59:50;;;;;;;3.67;2.80;;;5.60;97.30;;;;;;4935891;29;20187;-85
2023/04/08 03:02:16;;;;;;;2.23;2.10;;;5.60;97.30;;;;;;4933414;29;20779;-86
2023/04/08 03:04:41;;;;;;;3.03;2.57;;;5.60;97.30;;;;;;4934352;29;20192;-84
2023/04/08 03:07:07;;;;;;;7.37;2.90;;;5.60;97.30;;;;;;4936285;29;20503;-86
2023/04/08 03:09:32;;;;;;;6.63;2.33;;;5.60;97.30;;;;;;4964648;28;20184;-87
2023/04/08 03:11:58;;;;;;;2.73;2.10;;;5.60;97.30;;;;;;4939031;29;20218;-86
2023/04/08 03:14:23;;;;;;;2.50;1.90;;;5.60;97.30;;;;;;4936060;29;20207;-86
2023/04/08 03:16:49;;;;;;;3.90;2.17;;;5.60;97.30;;;;;;4935335;29;20259;-86
2023/04/08 03:19:15;;;;;;;1.70;1.60;;;5.60;97.30;;;;;;4934648;29;20641;-86
2023/04/08 03:21:40;;;;;;;5.43;1.77;;;5.60;97.30;;;;;;4934239;29;20274;-86
2023/04/08 03:24:06;;;;;;;3.03;2.83;;;5.60;97.30;;;;;;4932164;29;20187;-86
2023/04/08 03:26:31;;;;;;;1.70;1.60;;;5.60;97.30;;;;;;4927953;29;20258;-86
2023/04/08 03:28:57;;;;;;;4.27;1.80;;;5.60;97.30;;;;;;4936831;29;20192;-87
2023/04/08 03:31:22;;;;;;;3.00;2.80;;;5.60;97.30;;;;;;4933995;29;20211;-86
2023/04/08 03:33:48;;;;;;;3.27;2.23;;;5.60;97.30;;;;;;4930433;29;20227;-86
2023/04/08 03:36:13;;;;;;;1.80;1.47;;;5.60;97.30;;;;;;4933961;29;20186;-86
2023/04/08 03:38:39;;;;;;;3.97;2.67;;;5.60;97.30;;;;;;4931177;29;20183;-88
2023/04/08 03:41:04;;;;;;;1.97;1.87;;;5.60;97.30;;;;;;4933499;29;20195;-87
2023/04/08 03:43:30;;;;;;;3.07;2.87;;;5.50;97.30;;;;;;4931546;29;20179;-86
2023/04/08 03:45:55;;;;;;;1.10;1.00;;;5.50;97.30;;;;;;4926065;29;20184;-87
2023/04/08 03:48:21;;;;;;;5.87;2.40;;;5.60;97.30;;;;;;4934236;29;20183;-86
2023/04/08 03:50:47;;;;;;;3.70;2.33;;;5.60;97.30;;;;;;4933696;29;20247;-86
2023/04/08 03:53:13;;;;;;;2.20;1.73;;;5.60;97.30;;;;;;4933514;29;20467;-86
2023/04/08 03:55:38;;;;;;;2.60;2.33;;;5.60;97.30;;;;;;4927985;29;20558;-86
2023/04/08 03:58:04;;;;;;;1.30;1.20;;;5.60;97.30;;;;;;4931278;29;20183;-86
2023/04/08 04:00:30;;;;;;;1.23;1.13;;;5.60;97.30;;;;;;4933693;29;20280;-87
2023/04/08 04:02:55;;;;;;;1.57;1.47;;;5.60;97.30;;;;;;4934409;29;20427;-86
2023/04/08 04:05:21;;;;;;;1.10;1.00;;;5.60;97.30;;;;;;4933627;29;20250;-86
2023/04/08 04:07:46;;;;;;;4.30;2.37;;;5.60;97.30;;;;;;4930394;29;20652;-85
2023/04/08 04:10:12;;;;;;;2.30;1.93;;;5.60;97.30;;;;;;4930891;29;20201;-85
2023/04/08 04:12:38;;;;;;;1.73;1.23;;;5.60;97.30;;;;;;4934715;29;20239;-86
2023/04/08 04:15:04;;;;;;;4.13;2.73;;;5.60;97.30;;;;;;4934519;29;20641;-85
2023/04/08 04:17:29;;;;;;;5.80;2.10;;;5.50;97.30;;;;;;4933092;29;20251;-85
2023/04/08 04:19:55;;;;;;;1.27;1.17;;;5.60;97.30;;;;;;4933069;29;20512;-85
2023/04/08 04:22:20;;;;;;;1.40;1.30;;;5.60;97.30;;;;;;4939121;28;20259;-85
2023/04/08 04:24:47;;;;;;;7.83;2.70;;;5.60;97.30;;;;;;4933229;29;20215;-85
2023/04/08 04:27:13;;;;;;;1.20;1.10;;;5.60;97.30;;;;;;4933354;29;20188;-85
2023/04/08 04:29:38;;;;;;;1.67;1.50;;;5.60;97.30;;;;;;4926785;29;20432;-85
2023/04/08 04:32:05;;;;;;;2.20;1.67;;;5.60;97.30;;;;;;4930920;29;20203;-86
2023/04/08 04:34:31;;;;;;;1.20;1.10;;;5.60;97.30;;;;;;4928643;29;20192;-85
2023/04/08 04:36:56;;;;;;;1.63;1.53;;;5.60;97.30;;;;;;4932845;29;20436;-85
2023/04/08 04:39:22;;;;;;;1.90;1.80;;;5.60;97.30;;;;;;4933298;29;20582;-87
2023/04/08 04:41:48;;;;;;;1.83;1.50;;;5.60;97.30;;;;;;4930774;29;20218;-85
2023/04/08 04:44:13;;;;;;;1.37;1.27;;;5.60;97.30;;;;;;4932941;29;20672;-85
2023/04/08 04:46:41;;;;;;;1.37;1.27;;;5.60;97.30;;;;;;4925020;29;20802;-85
2023/04/08 04:49:07;;;;;;;1.57;1.17;;;5.60;97.30;;;;;;4929889;29;20195;-85
2023/04/08 04:51:32;;;;;;;5.13;2.97;;;5.50;97.30;;;;;;4931228;29;20999;-87
2023/04/08 04:53:58;;;;;;;1.23;1.13;;;5.50;97.30;;;;;;4934048;29;20235;-85
2023/04/08 04:56:25;;;;;;;6.00;2.47;;;5.50;97.30;;;;;;4932358;29;20203;-86
2023/04/08 04:58:50;;;;;;;1.17;1.07;;;5.50;97.30;;;;;;4933519;29;20180;-86
2023/04/08 05:01:16;;;;;;;1.40;1.30;;;5.50;97.30;;;;;;4932175;29;20462;-86
2023/04/08 05:03:42;;;;;;;1.90;1.70;;;5.50;97.30;;;;;;4937033;29;20226;-86
2023/04/08 05:06:07;;;;;;;4.67;1.73;;;5.50;97.30;;;;;;4931167;29;20198;-87
2023/04/08 05:08:33;;;;;;;1.80;1.70;;;5.50;97.30;;;;;;4923639;29;20184;-85
2023/04/08 05:11:00;;;;;;;1.20;1.10;;;5.50;97.30;;;;;;4926351;29;20685;-86
2023/04/08 05:13:27;;;;;;;2.73;2.03;;;5.60;97.30;;;;;;4933508;29;20191;-86
2023/04/08 05:15:52;;;;;;;4.27;3.00;;;5.60;97.30;;;;;;4931904;29;20470;-86
2023/04/08 05:18:18;;;;;;;3.43;1.73;;;5.60;97.30;;;;;;4932049;29;20428;-85
2023/04/08 05:20:44;;;;;;;2.20;1.90;;;5.60;97.30;;;;;;4920601;29;20685;-87
2023/04/08 05:23:10;;;;;;;6.40;2.90;;;5.60;97.30;;;;;;4931989;29;21050;-86
2023/04/08 05:25:38;;;;;;;3.83;1.67;;;5.60;97.30;;;;;;4931994;29;20421;-86
2023/04/08 05:28:03;;;;;;;1.77;1.67;;;5.60;97.30;;;;;;4928237;29;20179;-85
2023/04/08 05:30:29;;;;;;;0.90;0.80;;;5.60;97.30;;;;;;4931161;29;20988;-80
2023/04/08 05:32:55;;;;;;;2.30;1.83;;;5.60;97.30;;;;;;4931972;29;20235;-86
2023/04/08 05:35:20;;;;;;;1.63;1.53;;;5.60;97.30;;;;;;4937767;29;20483;-86
2023/04/08 05:37:49;;;;;;;1.63;1.53;;;5.60;97.30;;;;;;4930612;29;20184;-85
2023/04/08 05:40:16;;;;;;;1.57;1.00;;;5.60;97.30;;;;;;4931354;29;22037;-85
2023/04/08 05:42:42;;;;;;;1.00;0.90;;;5.60;97.30;;;;;;4930132;29;20957;-85
2023/04/08 05:45:08;;;;;;;1.00;1.00;;;5.60;97.30;;;;;;4929967;28;20428;-85
2023/04/08 05:47:36;;;;;;;1.70;1.60;;;5.60;97.30;;;;;;4935988;28;20204;-85
2023/04/08 05:50:02;;;;;;;7.80;4.27;;;5.60;97.30;;;;;;4930066;29;20439;-85
2023/04/08 05:52:30;;;;;;;1.43;1.37;;;5.60;97.30;;;;;;4923354;29;20429;-86
2023/04/08 05:54:59;;;;;;;2.83;2.63;;;5.60;97.30;;;;;;4933458;29;20203;-85
2023/04/08 05:57:29;;;;;;;1.83;1.20;;;5.60;97.30;;;;;;4932225;29;20432;-85
2023/04/08 06:00:03;;;;;;;1.73;1.63;;;5.60;97.30;;;;;;4930126;29;20439;-86
2023/04/08 06:02:32;;;;;;;1.33;1.23;;;5.60;97.30;;;;;;4926671;29;20510;-87
2023/04/08 06:05:00;;;;;;;2.63;2.30;;;5.70;97.30;;;;;;4930398;29;20438;-86
2023/04/08 06:07:28;;;;;;;1.80;1.40;;;5.60;97.30;;;;;;4929317;29;20419;-86
2023/04/08 06:09:54;;;;;;;5.13;1.90;;;5.60;97.30;;;;;;4932417;29;20435;-85
2023/04/08 06:12:19;;;;;;;1.13;1.03;;;5.70;97.30;;;;;;4924484;29;20436;-86
2023/04/08 06:14:45;;;;;;;8.83;2.40;;;5.70;97.30;;;;;;4927703;29;20203;-87
2023/04/08 06:17:11;;;;;;;3.77;1.63;;;5.70;97.30;;;;;;4932126;29;20198;-84
2023/04/08 06:19:36;;;;;;;3.70;1.30;;;5.70;97.30;;;;;;4933503;29;20219;-86
2023/04/08 06:22:02;;;;;;;4.30;2.10;;;5.70;97.30;;;;;;4931077;29;20257;-87
2023/04/08 06:24:28;;;;;;;4.73;3.30;;;5.80;97.30;;;;;;4929006;29;20203;-87
2023/04/08 06:26:54;;;;;;;2.60;2.40;;;5.80;97.30;;;;;;4930179;29;20743;-87
2023/04/08 06:29:20;;;;;;;1.93;1.83;;;5.80;97.30;;;;;;4924856;29;21032;-86
2023/04/08 06:31:49;;;;;;;2.50;1.20;;;5.80;97.30;;;;;;4928782;29;20471;-87
2023/04/08 06:34:17;;;;;;;1.77;1.67;;;5.90;97.30;;;;;;4926650;29;20472;-85
2023/04/08 06:36:43;;;;;;;6.10;3.10;;;5.90;97.30;;;;;;4927414;29;20421;-85
2023/04/08 06:39:08;;;;;;;1.87;1.73;;;5.90;97.30;;;;;;4924375;29;20422;-86
2023/04/08 06:41:34;;;;;;;4.67;2.40;;;5.90;97.30;;;;;;4929865;29;20207;-86
2023/04/08 06:44:00;;;;;;;1.27;1.17;;;5.90;97.30;;;;;;4931215;29;20219;-88
2023/04/08 06:46:26;;;;;;;4.07;2.37;;;5.90;97.30;;;;;;4928650;29;20279;-86
2023/04/08 06:48:51;;;;;;;2.03;1.90;;;6.00;97.30;;;;;;4927475;29;20172;-86
2023/04/08 06:51:17;;;;;;;15.03;2.33;;;5.90;97.30;;;;;;4926407;29;20203;-88
2023/04/08 06:53:42;;;;;;;5.17;2.30;;;5.90;97.30;;;;;;4931221;29;20168;-87
2023/04/08 06:56:08;;;;;;;9.57;3.07;;;5.90;97.30;;;;;;4929611;29;20199;-85
2023/04/08 06:58:33;;;;;;;7.53;3.90;;;5.90;97.30;;;;;;4917772;29;20262;-88
2023/04/08 07:01:00;;;;;;;9.40;3.27;;;6.00;97.30;;;;;;4918158;29;20201;-86
2023/04/08 07:03:26;;;;;;;3.43;2.80;;;6.00;97.30;;;;;;4929738;29;20563;-88
2023/04/08 07:05:52;;;;;;;6.83;2.97;;;6.00;97.30;;;;;;4931854;29;20510;-86
2023/04/08 07:08:20;;;;;;;2.73;2.03;;;6.00;97.30;;;;;;4932527;29;20191;-86
2023/04/08 07:10:47;;;;;;;4.97;3.17;;;6.10;97.30;;;;;;4927828;29;20443;-86
2023/04/08 07:13:13;;;;;;;4.20;2.80;;;6.10;97.30;;;;;;4924078;29;20482;-87
2023/04/08 07:15:39;;;;;;;11.37;4.57;;;6.20;97.30;;;;;;4930622;29;20475;-87
2023/04/08 07:18:05;;;;;;;5.80;2.80;;;6.20;97.30;;;;;;4926444;29;20180;-86
2023/04/08 07:20:30;;;;;;;3.77;3.57;;;6.20;97.30;;;;;;4931157;29;20815;-86
2023/04/08 07:22:56;;;;;;;3.63;2.00;;;6.20;97.30;;;;;;4929546;29;20251;-86
2023/04/08 07:25:21;;;;;;;7.50;4.27;;;6.20;97.30;;;;;;4934384;29;20191;-87
2023/04/08 07:27:47;;;;;;;7.00;3.10;;;6.20;97.30;;;;;;4934551;29;20325;-86
2023/04/08 07:30:12;;;;;;;10.23;5.40;;;6.30;97.30;;;;;;4937996;29;20180;-87
2023/04/08 07:32:40;;;;;;;4.17;3.97;;;6.30;97.30;;;;;;4934299;29;20183;-87
2023/04/08 07:35:06;;;;;;;7.67;6.60;;;6.40;97.30;;;;;;4929487;29;20660;-87
2023/04/08 07:37:32;;;;;;;7.37;3.40;;;6.40;97.30;;;;;;4934256;29;20419;-88
2023/04/08 07:39:57;;;;;;;3.37;2.90;;;6.50;97.30;;;;;;4934473;29;20435;-87
2023/04/08 07:42:23;;;;;;;6.37;4.63;;;6.50;97.30;;;;;;4933919;29;20172;-86
2023/04/08 07:44:48;;;;;;;4.30;3.27;;;6.50;97.30;;;;;;4933121;29;20180;-87
2023/04/08 07:47:15;;;;;;;4.13;3.30;;;6.60;97.30;;;;;;4934352;29;20183;-87
2023/04/08 07:49:40;;;;;;;9.27;4.87;;;6.70;97.30;;;;;;4925947;29;20177;-88
2023/04/08 07:52:06;;;;;;;2.97;2.70;;;6.70;97.30;;;;;;4933963;29;20447;-88
2023/04/08 07:54:34;;;;;;;4.97;4.40;;;6.80;97.30;;;;;;4931523;29;20239;-87
2023/04/08 07:57:01;;;;;;;5.43;4.57;;;6.80;97.30;;;;;;4927623;29;20263;-88
2023/04/08 07:59:27;;;;;;;4.77;3.73;;;6.80;97.30;;;;;;4938837;28;20428;-87
2023/04/08 08:01:52;;;;;;;3.43;3.10;;;6.90;97.30;;;;;;4933473;29;20447;-89
2023/04/08 08:04:18;;;;;;;6.03;4.10;;;7.00;97.30;;;;;;4937134;29;20435;-90
2023/04/08 08:06:43;;;;;;;14.87;5.17;;;7.00;97.30;;;;;;4925493;29;20283;-88
2023/04/08 08:09:09;;;;;;;7.43;4.80;;;7.10;97.30;;;;;;4931622;29;20184;-89
2023/04/08 08:11:34;;;;;;;7.63;3.20;;;7.10;97.30;;;;;;4933793;29;20222;-87
2023/04/08 08:14:00;;;;;;;8.80;5.47;;;7.20;97.30;;;;;;4933240;29;20180;-87
2023/04/08 08:16:29;;;;;;;17.30;8.40;;;7.30;97.30;;;;;;4933465;29;20184;-87
2023/04/08 08:18:55;;;;;;;17.97;7.80;;;7.30;97.30;;;;;;4932864;29;20284;-88
2023/04/08 08:21:20;;;;;;;5.67;4.73;;;7.30;97.30;;;;;;4928666;29;20833;-87
2023/04/08 08:23:46;;;;;;;8.73;6.37;;;7.30;97.30;;;;;;4919231;29;20191;-87
2023/04/08 08:26:11;;;;;;;11.00;5.23;;;7.30;97.30;;;;;;4924479;29;20353;-89
2023/04/08 08:28:38;;;;;;;5.50;3.10;;;7.30;97.30;;;;;;4928461;29;20199;-88
2023/04/08 08:31:04;;;;;;;5.43;2.83;;;7.30;97.30;;;;;;4932749;29;20607;-87
2023/04/08 08:33:30;;;;;;;8.70;4.53;;;7.40;97.30;;;;;;4932569;29;20503;-88
2023/04/08 08:35:56;;;;;;;13.03;6.73;;;7.50;97.30;;;;;;4929809;29;20471;-88
2023/04/08 08:38:22;;;;;;;6.90;4.20;;;7.60;97.30;;;;;;4932148;29;21069;-88
2023/04/08 08:40:54;;;;;;;35.90;7.27;;;7.70;97.30;;;;;;4930198;29;20531;-88
2023/04/08 08:43:19;;;;;;;13.67;5.33;;;7.70;97.30;;;;;;4942970;29;20543;-88
2023/04/08 08:45:45;;;;;;;7.07;6.00;;;7.70;97.30;;;;;;4926815;29;20434;-87
2023/04/08 08:48:11;;;;;;;6.10;3.23;;;7.70;97.30;;;;;;4931937;29;20286;-88
2023/04/08 08:50:36;;;;;;;18.40;7.70;;;7.80;97.30;;;;;;4930532;29;20342;-88
2023/04/08 08:53:02;;;;;;;10.80;6.07;;;7.90;97.30;;;;;;4922384;29;20188;-88
2023/04/08 08:55:34;;;;;;;11.70;5.23;;;8.00;97.30;;;;;;4930325;29;20702;-87
2023/04/08 08:58:01;;;;;;;12.33;5.80;;;8.10;97.30;;;;;;4926377;29;20440;-88
2023/04/08 09:00:34;;;;;;;11.43;6.10;;;8.10;97.30;;;;;;4931711;29;20468;-88
2023/04/08 09:03:18;;;;;;;13.00;5.10;;;8.20;97.30;;;;;;4923882;29;20917;-87
2023/04/08 09:05:55;;;;;;;13.13;5.97;;;8.30;97.30;;;;;;4926489;29;20578;-89
2023/04/08 09:08:36;;;;;;;6.90;5.17;;;8.40;97.30;;;;;;4945280;28;20478;-89
2023/04/08 09:11:17;;;;;;;6.30;4.03;;;8.40;97.30;;;;;;4925588;29;20809;-89
2023/04/08 09:13:44;;;;;;;13.17;9.37;;;8.30;97.30;;;;;;4931686;29;20489;-89
2023/04/08 09:16:12;;;;;;;9.20;5.30;;;8.40;97.30;;;;;;4932355;29;20995;-88
2023/04/08 09:18:39;;;;;;;10.90;7.33;;;8.40;97.30;;;;;;4932693;29;20433;-89
2023/04/08 09:21:06;;;;;;;20.73;7.77;;;8.40;97.30;;;;;;4934236;29;20540;-88
2023/04/08 09:23:45;;;;;;;6.57;4.87;;;8.30;97.30;;;;;;4934207;29;20843;-88
2023/04/08 09:26:16;;;;;;;16.97;4.40;;;8.30;97.30;;;;;;4935330;29;20474;-89
2023/04/08 09:28:43;;;;;;;6.27;5.00;;;8.30;97.30;;;;;;4932560;29;21386;-88
2023/04/08 09:31:19;;;;;;;3.93;3.73;;;8.30;97.30;;;;;;4932268;29;21039;-89
2023/04/08 09:33:46;;;;;;;7.30;3.77;;;8.30;97.30;;;;;;4933721;29;20446;-88
2023/04/08 09:36:11;;;;;;;5.33;3.07;;;8.20;97.30;;;;;;4942627;29;20510;-88
2023/04/08 09:38:45;;;;;;;10.73;5.37;;;8.20;97.30;;;;;;4932071;29;20862;-88
2023/04/08 09:41:22;;;;;;;9.57;3.97;;;8.20;97.30;;;;;;4932107;29;20200;-89
2023/04/08 09:43:54;;;;;;;6.93;4.97;;;8.20;97.30;;;;;;4931941;29;20423;-89
2023/04/08 09:46:31;;;;;;;8.10;7.07;;;8.20;97.30;;;;;;4932700;29;20483;-91
2023/04/08 09:49:06;;;;;;;9.87;6.10;;;8.30;97.30;;;;;;4932647;29;20432;-88
2023/04/08 09:51:45;;;;;;;11.63;6.17;;;8.30;97.30;;;;;;4932116;29;20615;-88
2023/04/08 09:54:22;;;;;;;15.67;6.00;;;8.30;97.30;;;;;;4932400;29;20490;-88
2023/04/08 09:57:00;;;;;;;25.37;8.07;;;8.30;97.30;;;;;;4934057;29;20482;-88
2023/04/08 09:59:32;;;;;;;9.20;6.60;;;8.30;97.30;;;;;;4931878;29;20494;-89
2023/04/08 10:02:08;;;;;;;19.77;8.07;;;8.30;97.30;;;;;;4929256;29;20443;-88
2023/04/08 10:04:37;;;;;;;9.80;6.47;;;8.30;97.30;;;;;;4926621;29;20426;-89
2023/04/08 10:07:05;;;;;;;11.63;5.87;;;8.40;97.30;;;;;;4932343;29;20865;-88
2023/04/08 10:09:32;;;;;;;12.03;6.90;;;8.40;97.30;;;;;;4932149;29;20465;-89
2023/04/08 10:12:00;;;;;;;17.43;6.60;;;8.50;97.30;;;;;;4938440;28;20901;-88
2023/04/08 10:14:27;;;;;;;5.07;3.90;;;8.60;97.30;;;;;;4928390;29;20547;-88
2023/04/08 10:17:34;;;;;;;8.47;5.73;;;8.70;97.30;;;;;;4925197;29;20608;-89
2023/04/08 10:20:02;;;;;;;15.17;6.83;;;8.70;97.30;;;;;;4924121;29;20794;-88
2023/04/08 10:22:30;;;;;;;9.97;7.57;;;8.70;97.30;;;;;;4932085;29;20472;-91
2023/04/08 10:25:14;;;;;;;6.13;4.77;;;8.70;97.30;;;;;;4932590;29;20860;-88
2023/04/08 10:27:43;;;;;;;13.63;5.70;;;8.60;97.30;;;;;;4930388;29;20420;-91
2023/04/08 10:30:26;;;;;;;7.60;6.20;;;8.60;97.30;;;;;;4919800;29;20434;-88
2023/04/08 10:32:56;;;;;;;15.63;4.83;;;8.70;97.30;;;;;;4941894;29;20813;-94
2023/04/08 10:35:29;;;;;;;7.03;5.73;;;8.70;97.30;;;;;;4956516;28;20467;-91
2023/04/08 10:37:55;;;;;;;12.20;6.67;;;8.70;97.30;;;;;;4938381;29;20420;-88
2023/04/08 10:40:20;;;;;;;13.47;6.23;;;8.80;97.30;;;;;;4934617;29;20457;-91
2023/04/08 10:42:46;;;;;;;5.73;4.73;;;8.90;97.30;;;;;;4931543;29;20180;-89
2023/04/08 10:45:23;;;;;;;9.33;6.47;;;9.00;97.30;;;;;;4936740;29;20175;-88
2023/04/08 10:47:51;;;;;;;4.50;4.20;;;9.10;97.30;;;;;;4931448;29;20172;-89
2023/04/08 10:50:19;;;;;;;6.60;5.13;;;9.20;97.30;;;;;;4927983;29;20667;-89
2023/04/08 10:52:52;;;;;;;9.97;5.73;;;9.30;97.30;;;;;;4932760;29;20451;-89
2023/04/08 10:55:25;;;;;;;8.27;4.80;;;9.20;97.30;;;;;;4929205;29;20538;-89
2023/04/08 10:57:51;;;;;;;8.40;4.80;;;9.20;97.30;;;;;;4934818;29;20412;-88
2023/04/08 11:00:17;;;;;;;10.50;6.27;;;9.20;97.30;;;;;;4935541;29;20530;-89
2023/04/08 11:02:43;;;;;;;10.23;6.10;;;9.20;97.30;;;;;;4935173;29;20195;-89
2023/04/08 11:05:11;;;;;;;5.03;4.70;;;9.40;97.30;;;;;;4934234;29;20426;-90
2023/04/08 11:07:40;;;;;;;10.83;6.53;;;9.50;97.30;;;;;;4938439;29;20184;-89
2023/04/08 11:10:07;;;;;;;18.37;7.00;;;9.60;97.30;;;;;;4934636;29;21019;-88
2023/04/08 11:12:34;;;;;;;12.43;6.77;;;9.80;97.30;;;;;;4933895;29;20438;-89
2023/04/08 11:15:01;;;;;;;14.93;6.87;;;10.00;97.30;;;;;;4934276;29;20452;-89
2023/04/08 11:17:27;;;;;;;12.23;6.93;;;10.20;97.30;;;;;;4921961;29;20763;-90
2023/04/08 11:19:53;;;;;;;10.53;4.53;;;10.50;97.30;;;;;;4918778;29;20504;-89
2023/04/08 11:22:19;;;;;;;8.57;7.03;;;10.70;97.30;;;;;;4932059;29;20468;-89
2023/04/08 11:24:46;;;;;;;14.43;5.60;;;10.80;97.30;;;;;;4935847;29;20420;-89
2023/04/08 11:27:11;;;;;;;12.13;5.73;;;10.80;97.30;;;;;;4927629;29;20463;-89
2023/04/08 11:29:37;;;;;;;10.47;6.07;;;10.80;97.30;;;;;;4933805;29;20454;-89
2023/04/08 11:32:03;;;;;;;14.63;6.37;;;10.70;97.30;;;;;;4933898;29;20617;-89
2023/04/08 11:34:28;;;;;;;5.53;4.93;;;10.70;97.30;;;;;;4935266;29;20231;-89
2023/04/08 11:36:58;;;;;;;9.83;6.73;;;10.60;97.30;;;;;;4936065;29;20566;-89
2023/04/08 11:39:23;;;;;;;4.17;3.60;;;10.50;97.30;;;;;;4937063;29;20186;-91
2023/04/08 11:41:49;;;;;;;6.17;4.67;;;10.40;97.30;;;;;;4937509;29;20508;-89
2023/04/08 11:44:14;;;;;;;7.80;5.40;;;10.40;97.30;;;;;;4930324;29;20210;-89
2023/04/08 11:46:41;;;;;;;13.43;3.73;;;10.30;97.30;;;;;;4936067;29;20176;-89
2023/04/08 11:49:07;;;;;;;9.00;5.73;;;10.30;97.30;;;;;;4936454;29;20184;-89
2023/04/08 11:51:34;;;;;;;4.90;2.70;;;10.30;97.30;;;;;;4932774;29;20820;-89
2023/04/08 11:54:05;;;;;;;6.57;3.87;;;10.30;97.30;;;;;;4930605;29;21044;-88
2023/04/08 11:56:42;;;;;;;10.60;6.83;;;10.50;97.30;;;;;;4927761;29;20762;-89
2023/04/08 11:59:08;;;;;;;4.13;2.60;;;10.70;97.30;;;;;;4931021;29;20427;-89
2023/04/08 12:01:33;;;;;;;8.77;5.20;;;10.90;97.30;;;;;;4935597;29;21006;-88
2023/04/08 12:04:01;;;;;;;19.90;5.80;;;11.10;97.30;;;;;;4940926;29;20169;-89
2023/04/08 12:06:27;;;;;;;4.77;3.90;;;11.20;97.30;;;;;;4936851;29;20184;-89
2023/04/08 12:08:54;;;;;;;8.67;4.43;;;11.20;97.30;;;;;;4935098;29;20462;-89
2023/04/08 12:11:20;;;;;;;8.27;4.10;;;11.00;97.30;;;;;;4934579;29;21011;-89
2023/04/08 12:13:48;;;;;;;6.13;5.07;;;10.80;97.30;;;;;;4935409;29;20516;-89
2023/04/08 12:16:14;;;;;;;3.97;3.77;;;10.70;97.30;;;;;;4922109;29;20211;-89
2023/04/08 12:18:39;;;;;;;3.93;3.73;;;10.50;97.30;;;;;;4932674;29;20424;-89
2023/04/08 12:21:05;;;;;;;9.77;4.20;;;10.50;97.30;;;;;;4934898;29;20238;-90
2023/04/08 12:23:30;;;;;;;14.07;5.53;;;10.50;97.30;;;;;;4934957;28;20618;-89
2023/04/08 12:25:58;;;;;;;6.33;3.40;;;10.50;97.30;;;;;;4937257;29;20186;-89
2023/04/08 12:28:24;;;;;;;14.00;5.57;;;10.40;97.30;;;;;;4934361;29;20271;-90
2023/04/08 12:30:52;;;;;;;6.70;5.60;;;10.40;97.30;;;;;;4933112;29;20507;-89
2023/04/08 12:33:20;;;;;;;8.53;3.70;;;10.40;97.30;;;;;;4931494;29;20192;-89
2023/04/08 12:35:46;;;;;;;9.60;6.30;;;10.50;97.30;;;;;;4939804;29;20475;-89
2023/04/08 12:38:11;;;;;;;11.43;5.37;;;10.50;97.30;;;;;;4932791;29;20420;-89
2023/04/08 12:40:42;;;;;;;7.40;2.53;;;10.60;97.30;;;;;;4925264;29;20192;-89
2023/04/08 12:43:10;;;;;;;10.50;4.67;;;10.70;97.30;;;;;;4929615;29;20172;-89
2023/04/08 12:45:35;;;;;;;7.80;3.73;;;10.80;97.30;;;;;;4933683;29;20933;-89
2023/04/08 12:48:01;;;;;;;12.40;5.07;;;10.90;97.30;;;;;;4923654;29;20427;-89
2023/04/08 12:50:27;;;;;;;4.80;4.33;;;11.00;97.30;;;;;;4933425;29;20207;-89
2023/04/08 12:52:52;;;;;;;7.23;3.43;;;11.00;97.30;;;;;;4927968;29;20202;-88